Warrington, Indiana
Current Conditions -  °F | °C
As of 12:15 PM on Sunday 21 Dec 2014 (Local Time) from KMQJ Reporting Station
Broken Clouds Broken Clouds  
Wind Chill: -4°   Ceiling: 1300
Heat Index:   Visibility: 5mi
Dew Point: -6°   Wind: 9mph
Humidity: 64%   Direction: 140°SE
Pressure: 30.25"   Gusts: NA
Location:  39.9098°N, 85.6325°W
Report Text: KMQJ 211715Z AUTO 14008KT 5SM BKN013 00/M06 A3025 RMK AO1
Loading
Personal Weather Stations






























Interactive Weather Map New forecast layout! Learn more

10-Day Weather Forecast

Advertisements
Track Severe Weather on mobile